Time;durP1;ratioP1;P1;durP2;ratioP2;P2;SDS_P1;SDS_P2;PMS_P1;PMS_P2;Temp;Humidity;BMP_temperature;BMP_pressure;BME280_temperature;BME280_humidity;BME280_pressure;Samples;Min_cycle;Max_cycle;Signal;HPM_P1;HPM_P2
2021/06/30 00:00:30;;;;;;;1.30;1.20;;;23.50;66.30;;;;;;4987152;28;20389;-19
2021/06/30 00:02:55;;;;;;;1.23;1.23;;;23.50;65.80;;;;;;4986562;28;20508;-27
2021/06/30 00:05:21;;;;;;;1.30;1.30;;;23.50;66.30;;;;;;4990955;28;20129;-20
2021/06/30 00:07:46;;;;;;;1.48;1.38;;;23.40;66.20;;;;;;4976234;28;20027;-23
2021/06/30 00:10:12;;;;;;;1.10;1.10;;;23.40;66.40;;;;;;4976058;28;20126;-20
2021/06/30 00:12:38;;;;;;;1.10;1.00;;;23.50;66.20;;;;;;4975151;28;20485;-21
2021/06/30 00:15:17;;;;;;;1.42;1.33;;;23.50;65.90;;;;;;4973263;28;20035;-20
2021/06/30 00:17:44;;;;;;;1.65;1.55;;;23.50;65.70;;;;;;4972816;28;20619;-19
2021/06/30 00:20:10;;;;;;;1.25;1.15;;;23.50;65.80;;;;;;4976560;28;20417;-19
2021/06/30 00:22:36;;;;;;;1.33;1.05;;;23.50;66.10;;;;;;4987203;28;20022;-20
2021/06/30 00:25:01;;;;;;;2.33;1.23;;;23.50;65.90;;;;;;4982250;28;20137;-19
2021/06/30 00:27:27;;;;;;;1.60;1.50;;;23.50;66.00;;;;;;4976040;28;20097;-19
2021/06/30 00:29:53;;;;;;;1.50;1.40;;;23.50;65.70;;;;;;4974054;28;20041;-23
2021/06/30 00:32:18;;;;;;;1.30;1.30;;;23.50;66.00;;;;;;4986744;28;20520;-19
2021/06/30 00:34:44;;;;;;;1.50;1.30;;;23.50;65.80;;;;;;4978349;28;20066;-19
2021/06/30 00:37:09;;;;;;;1.50;1.17;;;23.40;65.80;;;;;;4977147;28;20041;-19
2021/06/30 00:39:35;;;;;;;1.83;1.73;;;23.40;66.10;;;;;;4975455;28;20515;-19
2021/06/30 00:42:01;;;;;;;1.40;1.33;;;23.40;66.10;;;;;;4974994;28;20081;-18
2021/06/30 00:44:26;;;;;;;1.48;1.38;;;23.50;65.90;;;;;;4973792;28;20118;-19
2021/06/30 00:46:52;;;;;;;2.22;1.42;;;23.50;65.70;;;;;;4976263;28;20082;-19
2021/06/30 00:49:17;;;;;;;1.58;1.50;;;23.50;66.00;;;;;;4975271;28;20988;-18
2021/06/30 00:51:43;;;;;;;1.30;1.20;;;23.50;66.10;;;;;;4979672;28;20046;-22
2021/06/30 00:54:09;;;;;;;1.08;1.08;;;23.40;66.00;;;;;;4973774;28;20034;-19
2021/06/30 00:56:34;;;;;;;1.48;1.38;;;23.50;65.90;;;;;;4982028;28;20489;-18
2021/06/30 00:59:00;;;;;;;1.40;1.30;;;23.40;65.90;;;;;;4975236;28;20042;-19
2021/06/30 01:01:26;;;;;;;1.35;1.30;;;23.50;65.90;;;;;;4983586;28;20022;-18
2021/06/30 01:03:52;;;;;;;2.53;1.40;;;23.50;65.50;;;;;;4982848;28;20127;-20
2021/06/30 01:06:17;;;;;;;1.92;1.60;;;23.50;65.50;;;;;;4974364;28;20473;-21
2021/06/30 01:08:43;;;;;;;1.70;1.50;;;23.50;65.70;;;;;;4972042;28;20084;-21
2021/06/30 01:11:09;;;;;;;1.60;1.50;;;23.50;65.80;;;;;;4975135;28;20033;-19
2021/06/30 01:13:35;;;;;;;1.40;1.38;;;23.40;65.70;;;;;;4975470;28;20042;-23
2021/06/30 01:16:00;;;;;;;1.40;1.40;;;23.50;66.60;;;;;;4975306;28;20023;-19
2021/06/30 01:18:29;;;;;;;1.20;1.20;;;23.50;65.80;;;;;;4975037;28;20830;-19
2021/06/30 01:20:54;;;;;;;1.27;1.27;;;23.50;65.80;;;;;;4977686;28;20065;-19
2021/06/30 01:23:20;;;;;;;1.30;1.30;;;23.50;65.90;;;;;;4990614;28;20062;-22
2021/06/30 01:25:46;;;;;;;1.73;1.50;;;23.40;66.10;;;;;;4975257;28;20022;-19
2021/06/30 01:28:12;;;;;;;1.48;1.38;;;23.40;66.30;;;;;;4979028;28;20610;-20
2021/06/30 01:30:39;;;;;;;1.33;1.30;;;23.40;65.80;;;;;;4983765;28;20034;-22
2021/06/30 01:33:04;;;;;;;1.60;1.50;;;23.40;65.90;;;;;;4972125;28;20637;-19
2021/06/30 01:35:30;;;;;;;1.33;1.23;;;23.50;65.70;;;;;;4982125;28;20038;-20
2021/06/30 01:37:55;;;;;;;1.52;1.42;;;23.50;65.80;;;;;;4984061;28;20398;-18
2021/06/30 01:40:21;;;;;;;1.50;1.40;;;23.50;65.50;;;;;;4978258;28;20023;-23
2021/06/30 01:42:48;;;;;;;1.60;1.50;;;23.60;65.40;;;;;;4980499;28;20038;-18
2021/06/30 01:45:14;;;;;;;1.55;1.55;;;23.60;65.30;;;;;;4973567;28;20037;-18
2021/06/30 01:47:40;;;;;;;1.20;1.20;;;23.50;65.50;;;;;;4971934;28;20034;-18
2021/06/30 01:50:06;;;;;;;1.80;1.70;;;23.50;65.30;;;;;;4974688;28;20011;-22
2021/06/30 01:52:32;;;;;;;1.67;1.58;;;23.50;65.50;;;;;;4974586;28;20034;-19
2021/06/30 01:54:58;;;;;;;1.42;1.33;;;23.50;65.70;;;;;;4974799;28;20027;-20
2021/06/30 01:57:23;;;;;;;1.92;1.70;;;23.40;65.90;;;;;;4976375;28;20026;-20
2021/06/30 01:59:49;;;;;;;1.33;1.33;;;23.40;66.10;;;;;;4970739;28;20114;-19
2021/06/30 02:02:14;;;;;;;1.70;1.60;;;23.40;65.90;;;;;;4989263;28;20093;-24
2021/06/30 02:04:41;;;;;;;1.55;1.40;;;23.40;65.80;;;;;;4975462;28;20055;-19
2021/06/30 02:07:07;;;;;;;1.65;1.55;;;23.40;65.80;;;;;;4974763;28;20454;-18
2021/06/30 02:09:33;;;;;;;1.95;1.77;;;23.40;66.00;;;;;;4971749;28;20034;-19
2021/06/30 02:11:59;;;;;;;1.70;1.60;;;23.40;65.80;;;;;;4985173;28;20058;-19
2021/06/30 02:14:24;;;;;;;1.88;1.77;;;23.40;66.00;;;;;;4974881;28;20061;-19
2021/06/30 02:16:50;;;;;;;1.80;1.70;;;23.40;66.00;;;;;;4979503;28;20110;-19
2021/06/30 02:19:15;;;;;;;2.00;1.90;;;23.40;65.90;;;;;;4978843;28;20453;-18
2021/06/30 02:21:42;;;;;;;1.70;1.60;;;23.40;66.00;;;;;;4974182;28;20085;-18
2021/06/30 02:24:08;;;;;;;1.83;1.73;;;23.40;66.80;;;;;;4985646;28;20034;-19
2021/06/30 02:26:34;;;;;;;1.63;1.52;;;23.40;65.70;;;;;;4972520;28;20037;-23
2021/06/30 02:28:59;;;;;;;1.70;1.70;;;23.40;66.40;;;;;;4986426;28;20544;-19
2021/06/30 02:31:25;;;;;;;2.00;1.90;;;23.30;67.60;;;;;;4977386;28;20030;-19
2021/06/30 02:33:51;;;;;;;1.95;1.85;;;23.20;67.70;;;;;;4974391;28;20054;-19
2021/06/30 02:36:17;;;;;;;1.63;1.52;;;23.20;67.50;;;;;;4973414;28;20081;-19
2021/06/30 02:38:42;;;;;;;1.88;1.75;;;23.10;67.70;;;;;;4971089;28;20102;-19
2021/06/30 02:41:08;;;;;;;2.22;2.13;;;23.10;68.20;;;;;;4974132;28;20566;-19
2021/06/30 02:43:34;;;;;;;2.30;2.20;;;23.10;68.20;;;;;;4977229;28;20070;-18
2021/06/30 02:45:59;;;;;;;1.77;1.67;;;23.10;68.20;;;;;;4982116;28;20022;-19
2021/06/30 02:48:25;;;;;;;1.77;1.67;;;23.10;68.50;;;;;;4988926;28;20037;-18
2021/06/30 02:50:52;;;;;;;2.15;2.00;;;23.10;68.30;;;;;;4984787;28;20536;-19
2021/06/30 02:53:18;;;;;;;2.28;2.17;;;23.10;68.30;;;;;;4977719;28;20031;-19
2021/06/30 02:55:43;;;;;;;2.40;2.20;;;23.10;68.40;;;;;;4990061;28;20101;-18
2021/06/30 02:58:09;;;;;;;2.55;2.45;;;23.20;68.40;;;;;;4982901;28;20031;-19
2021/06/30 03:00:34;;;;;;;1.95;1.85;;;23.10;68.30;;;;;;4978595;28;20026;-19
2021/06/30 03:03:00;;;;;;;2.08;1.98;;;23.10;68.20;;;;;;4988413;28;20031;-22
2021/06/30 03:05:26;;;;;;;2.38;2.28;;;23.10;68.30;;;;;;4976479;28;20117;-19
2021/06/30 03:07:51;;;;;;;2.30;2.20;;;23.10;68.20;;;;;;4977728;28;20030;-18
2021/06/30 03:10:18;;;;;;;2.45;2.35;;;23.20;68.20;;;;;;4984107;28;20026;-18
2021/06/30 03:12:43;;;;;;;2.40;2.20;;;23.10;67.90;;;;;;4986223;28;20091;-18
2021/06/30 03:15:10;;;;;;;2.20;2.10;;;23.10;68.20;;;;;;4975297;28;20030;-18
2021/06/30 03:17:36;;;;;;;2.55;2.45;;;23.10;68.20;;;;;;4975017;28;20621;-17
2021/06/30 03:20:09;;;;;;;2.90;2.70;;;23.10;68.20;;;;;;4977093;28;20138;-17
2021/06/30 03:22:36;;;;;;;2.60;2.40;;;23.10;67.90;;;;;;4976882;28;20509;-18
2021/06/30 03:25:02;;;;;;;2.28;2.17;;;23.10;67.80;;;;;;4977300;28;20070;-22
2021/06/30 03:27:28;;;;;;;2.75;2.55;;;23.10;67.70;;;;;;4976898;28;20058;-19
2021/06/30 03:29:53;;;;;;;2.25;2.15;;;23.20;67.70;;;;;;4973012;28;20038;-19
2021/06/30 03:32:19;;;;;;;2.17;2.08;;;23.20;67.60;;;;;;4992161;28;20023;-18
2021/06/30 03:34:45;;;;;;;2.25;2.15;;;23.30;67.30;;;;;;4977582;28;20454;-18
2021/06/30 03:37:10;;;;;;;2.40;2.30;;;23.30;67.40;;;;;;4986020;28;20497;-21
2021/06/30 03:39:37;;;;;;;2.17;2.08;;;23.20;67.30;;;;;;4989399;28;20038;-26
2021/06/30 03:42:03;;;;;;;2.60;2.50;;;23.20;67.30;;;;;;4987988;28;20035;-20
2021/06/30 03:44:28;;;;;;;2.28;2.17;;;23.20;67.50;;;;;;4974815;28;20037;-18
2021/06/30 03:46:54;;;;;;;2.28;2.17;;;23.20;67.30;;;;;;4988730;28;20084;-18
2021/06/30 03:49:19;;;;;;;2.30;2.20;;;23.20;67.50;;;;;;4980471;28;20469;-19
2021/06/30 03:51:45;;;;;;;2.15;2.05;;;23.20;67.30;;;;;;4979044;28;20029;-19
2021/06/30 03:54:10;;;;;;;2.38;2.28;;;23.20;67.30;;;;;;4990708;28;20560;-18
2021/06/30 03:56:36;;;;;;;2.70;2.50;;;23.20;67.60;;;;;;4989569;28;20072;-19
2021/06/30 03:59:03;;;;;;;2.35;2.15;;;23.20;67.70;;;;;;4979834;28;20506;-19
2021/06/30 04:01:29;;;;;;;2.58;2.47;;;23.10;68.10;;;;;;4987489;28;20023;-21
2021/06/30 04:03:55;;;;;;;2.70;2.60;;;23.10;67.80;;;;;;4989769;28;20137;-20
2021/06/30 04:06:22;;;;;;;2.80;2.70;;;23.10;67.50;;;;;;4988757;28;20074;-20
2021/06/30 04:08:47;;;;;;;3.17;2.40;;;23.20;67.20;;;;;;4990841;28;20036;-21
2021/06/30 04:11:13;;;;;;;2.88;2.67;;;23.30;67.10;;;;;;4991018;28;20014;-20
2021/06/30 04:13:39;;;;;;;2.83;2.72;;;23.30;66.80;;;;;;4989439;28;20030;-20
2021/06/30 04:16:05;;;;;;;2.38;2.28;;;23.30;66.80;;;;;;4989898;28;20030;-20
2021/06/30 04:18:31;;;;;;;5.75;2.50;;;23.30;66.80;;;;;;4989698;28;20034;-19
2021/06/30 04:20:56;;;;;;;2.72;2.63;;;23.30;66.70;;;;;;4990624;28;20099;-21
2021/06/30 04:23:22;;;;;;;2.60;2.50;;;23.30;66.70;;;;;;4992358;28;20104;-17
2021/06/30 04:25:48;;;;;;;2.80;2.60;;;23.30;66.70;;;;;;4992151;28;20038;-18
2021/06/30 04:28:14;;;;;;;2.47;2.38;;;23.30;66.50;;;;;;4991585;28;20104;-18
2021/06/30 04:30:40;;;;;;;2.97;2.88;;;23.30;66.70;;;;;;4957553;28;20031;-19
2021/06/30 04:33:05;;;;;;;3.13;2.83;;;23.30;66.70;;;;;;4991053;28;20645;-20
2021/06/30 04:35:31;;;;;;;2.55;2.45;;;23.20;66.80;;;;;;4991525;28;20034;-19
2021/06/30 04:37:56;;;;;;;2.35;2.17;;;23.20;66.60;;;;;;4992338;28;20030;-19
2021/06/30 04:40:22;;;;;;;2.40;2.30;;;23.10;67.00;;;;;;4991076;28;20033;-20
2021/06/30 04:42:47;;;;;;;2.70;2.60;;;23.00;67.40;;;;;;4991151;28;20110;-20
2021/06/30 04:45:13;;;;;;;2.90;2.80;;;22.90;67.70;;;;;;4991567;28;20045;-20
2021/06/30 04:47:39;;;;;;;3.10;2.90;;;22.90;67.70;;;;;;4991534;28;20061;-22
2021/06/30 04:50:05;;;;;;;3.70;3.50;;;23.00;67.50;;;;;;4991124;28;20034;-21
2021/06/30 04:52:30;;;;;;;2.90;2.80;;;23.10;67.30;;;;;;4991099;28;20501;-20
2021/06/30 04:54:57;;;;;;;3.45;3.25;;;23.10;66.90;;;;;;4974225;28;20036;-20
2021/06/30 04:57:22;;;;;;;3.05;2.83;;;23.10;67.10;;;;;;4991712;28;20054;-21
2021/06/30 04:59:48;;;;;;;3.15;3.03;;;23.00;67.30;;;;;;4990421;28;20069;-17
2021/06/30 05:02:15;;;;;;;3.65;3.45;;;23.00;67.10;;;;;;4990690;28;20033;-18
2021/06/30 05:04:41;;;;;;;4.47;4.20;;;23.10;67.00;;;;;;4990277;28;20108;-18
2021/06/30 05:07:06;;;;;;;5.63;5.32;;;23.10;66.80;;;;;;4989739;28;20030;-22
2021/06/30 05:09:32;;;;;;;6.20;5.80;;;23.00;67.00;;;;;;4642998;28;9999943;-22
2021/06/30 05:11:58;;;;;;;6.82;6.40;;;22.80;67.10;;;;;;4987352;28;20146;-21
2021/06/30 05:14:23;;;;;;;7.93;6.05;;;22.90;66.80;;;;;;4988771;28;20033;-21
2021/06/30 05:16:49;;;;;;;7.50;7.00;;;22.80;66.70;;;;;;4988133;28;20022;-21
2021/06/30 05:19:14;;;;;;;8.15;7.45;;;22.80;66.60;;;;;;4987072;28;20092;-22
2021/06/30 05:21:40;;;;;;;7.15;6.65;;;22.70;66.60;;;;;;4988822;28;20165;-21
2021/06/30 05:24:06;;;;;;;7.47;6.75;;;22.60;67.10;;;;;;4991297;28;20050;-26
2021/06/30 05:26:32;;;;;;;7.57;6.97;;;22.60;67.20;;;;;;4991076;28;20105;-22
2021/06/30 05:28:58;;;;;;;7.50;6.82;;;22.60;66.90;;;;;;4990734;28;20157;-21
2021/06/30 05:31:23;;;;;;;7.63;7.03;;;22.50;66.60;;;;;;4989482;28;20033;-20
2021/06/30 05:33:49;;;;;;;7.65;7.05;;;22.50;66.60;;;;;;4990713;28;20053;-21
2021/06/30 05:36:15;;;;;;;8.65;7.93;;;22.40;66.60;;;;;;4991046;28;20049;-21
2021/06/30 05:38:40;;;;;;;8.63;7.82;;;22.40;66.50;;;;;;4990311;28;20501;-22
2021/06/30 05:41:06;;;;;;;8.95;8.25;;;22.40;66.30;;;;;;4991028;28;20022;-21
2021/06/30 05:43:31;;;;;;;7.95;7.35;;;22.30;66.40;;;;;;4990844;28;20033;-21
2021/06/30 05:45:57;;;;;;;9.65;8.48;;;22.30;66.70;;;;;;4987865;28;20031;-21
2021/06/30 05:48:23;;;;;;;8.82;7.97;;;22.30;66.50;;;;;;4987528;28;20577;-22
2021/06/30 05:50:48;;;;;;;8.68;7.97;;;22.30;66.60;;;;;;4969896;28;20030;-21
2021/06/30 05:53:14;;;;;;;8.95;8.07;;;22.30;66.50;;;;;;4991438;28;20026;-22
2021/06/30 05:55:39;;;;;;;8.55;7.75;;;22.30;66.50;;;;;;4969206;28;20048;-21
2021/06/30 05:58:05;;;;;;;6.97;6.47;;;22.30;66.40;;;;;;4986482;28;20058;-22
2021/06/30 06:00:30;;;;;;;7.32;6.80;;;22.30;66.30;;;;;;4986005;28;20052;-21
2021/06/30 06:02:57;;;;;;;7.05;6.43;;;22.40;66.00;;;;;;4986999;28;20050;-21
2021/06/30 06:05:23;;;;;;;7.43;6.82;;;22.20;66.40;;;;;;4988053;28;20073;-22
2021/06/30 06:07:48;;;;;;;7.30;6.78;;;22.20;66.90;;;;;;4987362;28;20034;-20
2021/06/30 06:10:14;;;;;;;7.07;6.57;;;22.20;66.50;;;;;;4986060;28;20527;-20
2021/06/30 06:12:40;;;;;;;6.72;6.22;;;22.30;66.60;;;;;;4987431;28;20030;-20
2021/06/30 06:15:09;;;;;;;6.43;5.93;;;22.20;66.50;;;;;;4987438;28;20045;-19
2021/06/30 06:17:35;;;;;;;6.25;5.85;;;22.30;66.60;;;;;;4988736;28;20543;-19
2021/06/30 06:20:02;;;;;;;7.15;6.53;;;22.30;66.60;;;;;;4992379;28;20054;-19
2021/06/30 06:22:27;;;;;;;6.95;6.45;;;22.30;66.50;;;;;;4992669;28;20068;-22
2021/06/30 06:24:53;;;;;;;6.25;5.78;;;22.30;66.30;;;;;;4987886;28;20026;-20
2021/06/30 06:27:18;;;;;;;6.55;6.15;;;22.30;66.30;;;;;;4993167;28;20026;-21
2021/06/30 06:29:48;;;;;;;7.22;6.57;;;22.40;66.10;;;;;;4990529;28;20069;-20
2021/06/30 06:32:13;;;;;;;7.43;6.85;;;22.30;66.20;;;;;;4989608;28;20014;-19
2021/06/30 06:34:39;;;;;;;6.38;5.97;;;22.30;66.50;;;;;;4991078;28;20509;-21
2021/06/30 06:37:05;;;;;;;6.88;6.28;;;22.20;66.60;;;;;;4992599;28;20023;-20
2021/06/30 06:39:31;;;;;;;5.80;5.40;;;22.20;66.50;;;;;;4992282;28;20069;-20
2021/06/30 06:41:56;;;;;;;6.85;6.38;;;22.30;66.40;;;;;;4976050;28;20019;-20
2021/06/30 06:44:22;;;;;;;6.30;5.90;;;22.20;66.70;;;;;;4994641;28;20031;-26
2021/06/30 06:46:47;;;;;;;5.65;5.32;;;22.20;66.70;;;;;;4977048;28;20022;-20
2021/06/30 06:49:13;;;;;;;6.80;6.20;;;22.20;66.80;;;;;;4990732;28;20034;-21
2021/06/30 06:51:39;;;;;;;6.32;5.93;;;22.20;66.50;;;;;;4989766;28;20030;-20
2021/06/30 06:54:05;;;;;;;6.95;6.35;;;22.20;66.90;;;;;;4990596;28;20083;-20
2021/06/30 06:56:30;;;;;;;6.38;5.97;;;22.20;66.90;;;;;;4990942;28;20509;-20
2021/06/30 06:58:56;;;;;;;6.90;6.40;;;22.20;66.90;;;;;;4990167;28;20045;-21
2021/06/30 07:01:22;;;;;;;6.75;6.25;;;22.30;66.70;;;;;;4989814;28;20548;-21
2021/06/30 07:03:48;;;;;;;6.80;6.30;;;22.20;66.60;;;;;;4991655;28;20109;-21
2021/06/30 07:06:14;;;;;;;6.50;6.10;;;22.20;66.90;;;;;;4991988;28;20137;-20
2021/06/30 07:08:40;;;;;;;9.02;6.20;;;22.20;66.70;;;;;;4993932;28;20037;-20
2021/06/30 07:11:05;;;;;;;6.30;5.80;;;22.20;66.70;;;;;;4994078;28;20019;-20
2021/06/30 07:13:31;;;;;;;7.53;6.88;;;22.20;66.80;;;;;;4992809;28;20034;-20
2021/06/30 07:15:57;;;;;;;6.60;6.10;;;22.20;66.80;;;;;;4993639;28;20030;-20
2021/06/30 07:18:22;;;;;;;6.72;6.20;;;22.20;66.40;;;;;;4993333;28;20038;-19
2021/06/30 07:20:48;;;;;;;7.68;7.07;;;22.20;66.40;;;;;;4993334;28;20041;-19
2021/06/30 07:23:13;;;;;;;7.47;6.88;;;22.20;66.40;;;;;;4994229;28;20165;-20
2021/06/30 07:25:39;;;;;;;7.13;6.68;;;22.10;66.20;;;;;;4992726;28;20030;-19
2021/06/30 07:28:05;;;;;;;7.03;6.43;;;22.30;66.10;;;;;;4992130;28;20477;-20
2021/06/30 07:30:31;;;;;;;7.18;6.60;;;22.20;66.30;;;;;;4991918;28;20727;-19
2021/06/30 07:32:56;;;;;;;6.60;6.10;;;22.10;66.30;;;;;;4992310;28;20022;-23
2021/06/30 07:35:22;;;;;;;6.90;6.30;;;22.20;66.50;;;;;;4993822;28;20397;-20
2021/06/30 07:37:48;;;;;;;6.65;6.25;;;22.10;66.50;;;;;;4992848;28;20034;-22
2021/06/30 07:40:14;;;;;;;6.72;6.22;;;22.10;66.60;;;;;;4992533;28;20516;-22
2021/06/30 07:42:40;;;;;;;6.88;6.20;;;22.10;66.70;;;;;;4993088;28;20029;-23
2021/06/30 07:45:07;;;;;;;6.93;6.43;;;22.20;66.70;;;;;;4993179;28;20034;-24
2021/06/30 07:47:32;;;;;;;6.90;6.30;;;22.10;66.40;;;;;;4993064;28;20034;-25
2021/06/30 07:49:58;;;;;;;6.32;5.82;;;22.10;66.80;;;;;;4992855;28;20057;-23
2021/06/30 07:52:24;;;;;;;6.63;6.18;;;22.10;66.60;;;;;;4992183;28;20022;-22
2021/06/30 07:54:49;;;;;;;7.50;6.90;;;22.10;66.70;;;;;;4974891;28;20034;-22
2021/06/30 07:57:15;;;;;;;6.13;5.63;;;22.20;66.50;;;;;;4992496;28;20034;-20
2021/06/30 07:59:40;;;;;;;6.57;6.18;;;22.10;66.50;;;;;;4992023;28;20120;-19
2021/06/30 08:02:06;;;;;;;6.15;5.70;;;22.20;66.30;;;;;;4993505;28;20026;-20
2021/06/30 08:04:32;;;;;;;5.47;5.15;;;22.20;66.10;;;;;;4992684;28;20085;-20
2021/06/30 08:06:57;;;;;;;6.00;5.50;;;22.30;66.20;;;;;;4992680;28;20031;-20
2021/06/30 08:09:23;;;;;;;6.30;5.53;;;22.30;66.00;;;;;;4992110;28;20022;-20
2021/06/30 08:11:48;;;;;;;5.97;5.47;;;22.20;66.30;;;;;;4991970;28;20050;-19
2021/06/30 08:14:14;;;;;;;6.35;5.85;;;22.20;66.10;;;;;;4991537;28;20026;-20
2021/06/30 08:16:40;;;;;;;5.88;5.43;;;22.20;66.20;;;;;;4993024;28;20505;-19
2021/06/30 08:19:08;;;;;;;6.32;5.93;;;22.30;66.10;;;;;;4991865;28;20034;-23
2021/06/30 08:21:34;;;;;;;5.72;5.32;;;22.30;66.00;;;;;;4991896;28;20030;-19
2021/06/30 08:23:59;;;;;;;6.38;5.90;;;22.30;65.90;;;;;;4987900;28;20413;-22
2021/06/30 08:26:25;;;;;;;5.85;5.45;;;22.20;66.40;;;;;;4992840;28;20038;-20
2021/06/30 08:28:50;;;;;;;6.80;5.57;;;22.20;66.60;;;;;;4991880;28;20034;-21
2021/06/30 08:31:16;;;;;;;7.82;5.95;;;22.20;66.70;;;;;;4981660;28;20537;-21
2021/06/30 08:33:41;;;;;;;4.45;4.15;;;22.30;67.00;;;;;;4982635;28;20118;-22
2021/06/30 08:36:07;;;;;;;6.13;5.72;;;22.40;66.60;;;;;;4979695;28;20034;-21
2021/06/30 08:38:33;;;;;;;6.25;5.80;;;22.40;66.60;;;;;;4978803;28;20027;-22
2021/06/30 08:40:59;;;;;;;6.00;5.60;;;22.40;67.10;;;;;;4981092;28;20042;-22
2021/06/30 08:43:25;;;;;;;5.47;4.97;;;22.40;67.10;;;;;;4939695;28;21485;-21
2021/06/30 08:45:51;;;;;;;5.60;5.13;;;22.40;66.90;;;;;;4983121;28;20129;-22
2021/06/30 08:48:16;;;;;;;6.25;5.85;;;22.40;66.60;;;;;;4632350;28;10000201;-21
2021/06/30 08:50:45;;;;;;;6.18;5.68;;;22.30;66.90;;;;;;4979173;28;20033;-22
2021/06/30 08:53:13;;;;;;;7.35;6.75;;;22.20;67.00;;;;;;4986381;28;20045;-21
2021/06/30 08:55:42;;;;;;;6.88;6.28;;;22.30;66.70;;;;;;4969380;28;20590;-22
2021/06/30 08:58:08;;;;;;;6.68;6.18;;;22.30;66.70;;;;;;4983975;28;20034;-27
2021/06/30 09:00:34;;;;;;;6.63;6.18;;;22.30;66.40;;;;;;4966996;28;20027;-22
2021/06/30 09:03:01;;;;;;;6.57;5.97;;;22.10;66.70;;;;;;4978473;28;20572;-27
2021/06/30 09:07:55;;;;;;;6.00;5.55;;;22.20;66.10;;;;;;4971619;28;20387;-25
2021/06/30 09:10:37;;;;;;;5.50;5.20;;;22.10;66.10;;;;;;4976769;28;20066;-22
2021/06/30 09:13:04;;;;;;;4.97;4.63;;;22.10;66.10;;;;;;4978436;28;20050;-21
2021/06/30 09:15:35;;;;;;;5.30;4.88;;;22.10;66.00;;;;;;4971898;28;20477;-33
2021/06/30 09:18:56;;;;;;;5.55;5.25;;;22.00;66.40;;;;;;4974224;28;20043;-22
2021/06/30 09:21:22;;;;;;;4.90;4.70;;;21.90;66.40;;;;;;4969202;28;20537;-22
2021/06/30 09:23:57;;;;;;;4.78;4.47;;;21.90;66.70;;;;;;4979907;28;20757;-25
2021/06/30 09:26:22;;;;;;;4.30;4.00;;;21.90;66.80;;;;;;4972877;28;20026;-27
2021/06/30 09:28:48;;;;;;;4.20;3.90;;;21.90;66.80;;;;;;4979870;28;20085;-21
2021/06/30 09:31:15;;;;;;;4.53;4.22;;;21.90;66.70;;;;;;4978892;28;20034;-23
2021/06/30 09:33:47;;;;;;;4.63;4.28;;;21.90;66.90;;;;;;4979508;28;20038;-24
2021/06/30 09:36:13;;;;;;;5.13;4.82;;;22.00;67.00;;;;;;4980186;28;20042;-25
2021/06/30 09:38:40;;;;;;;4.55;4.25;;;22.00;67.40;;;;;;4971536;28;20042;-21
2021/06/30 09:41:06;;;;;;;5.25;4.90;;;22.00;67.80;;;;;;4975541;28;20043;-20
2021/06/30 09:43:33;;;;;;;5.18;4.88;;;21.90;68.10;;;;;;4978813;28;20034;-19
2021/06/30 09:46:01;;;;;;;6.40;5.97;;;21.90;68.50;;;;;;4977133;28;20034;-20
2021/06/30 09:48:28;;;;;;;7.88;6.97;;;21.80;69.20;;;;;;4978360;28;20043;-20
2021/06/30 09:50:54;;;;;;;10.10;9.07;;;21.90;69.50;;;;;;4977581;28;20032;-22
2021/06/30 09:53:38;;;;;;;8.90;7.95;;;22.00;69.50;;;;;;4982733;28;20029;-21
2021/06/30 09:56:08;;;;;;;10.05;9.10;;;21.90;69.60;;;;;;4985540;28;20023;-22
2021/06/30 09:58:33;;;;;;;11.50;10.30;;;21.90;70.40;;;;;;4978891;28;20034;-22
2021/06/30 10:01:18;;;;;;;10.52;9.45;;;21.90;70.40;;;;;;4969720;28;20037;-22
2021/06/30 10:03:45;;;;;;;12.20;10.25;;;21.90;70.60;;;;;;4980013;28;20027;-24
2021/06/30 10:06:23;;;;;;;14.07;11.45;;;21.90;71.50;;;;;;4984233;28;20042;-22
2021/06/30 10:08:49;;;;;;;12.10;10.40;;;21.90;70.50;;;;;;4982858;28;20036;-22
2021/06/30 10:11:14;;;;;;;11.23;9.65;;;22.00;70.30;;;;;;4973317;28;20027;-22
2021/06/30 10:13:40;;;;;;;10.55;9.38;;;22.00;70.10;;;;;;4990692;28;20038;-23
2021/06/30 10:16:05;;;;;;;9.95;8.95;;;22.00;70.10;;;;;;4973923;28;20029;-22
2021/06/30 10:18:31;;;;;;;12.43;10.13;;;22.10;69.80;;;;;;4972841;28;20045;-22
2021/06/30 10:20:57;;;;;;;12.60;9.43;;;21.90;70.00;;;;;;4957478;28;20069;-22
2021/06/30 10:23:22;;;;;;;11.98;9.48;;;21.90;69.90;;;;;;4990255;28;20050;-23
2021/06/30 10:25:48;;;;;;;10.75;8.77;;;22.00;69.60;;;;;;4988846;28;20031;-22
2021/06/30 10:28:14;;;;;;;11.55;9.65;;;21.90;69.60;;;;;;4970545;28;20127;-23
2021/06/30 10:30:39;;;;;;;12.57;9.68;;;22.00;69.40;;;;;;4955540;28;20030;-32
2021/06/30 10:33:05;;;;;;;13.65;9.90;;;22.00;69.40;;;;;;4953507;28;20031;-22
2021/06/30 10:35:32;;;;;;;11.32;8.90;;;22.10;69.00;;;;;;4976973;28;20058;-23
2021/06/30 10:37:57;;;;;;;9.73;8.77;;;22.20;68.90;;;;;;4980247;28;20033;-22
2021/06/30 10:40:24;;;;;;;10.43;9.43;;;22.10;69.60;;;;;;4984693;28;20038;-23
2021/06/30 10:43:15;;;;;;;14.23;10.05;;;22.10;70.20;;;;;;4970633;28;20023;-22
2021/06/30 10:45:41;;;;;;;12.15;9.98;;;22.10;70.50;;;;;;4980906;28;20084;-23
2021/06/30 10:48:11;;;;;;;11.07;9.75;;;22.20;70.50;;;;;;4987197;28;20080;-22
2021/06/30 10:50:43;;;;;;;10.27;9.25;;;22.20;70.30;;;;;;4979431;28;20042;-22
2021/06/30 10:53:12;;;;;;;13.48;10.70;;;22.30;70.80;;;;;;4982220;28;20142;-27
2021/06/30 10:55:41;;;;;;;11.88;9.55;;;22.30;70.70;;;;;;4988464;28;20704;-22
2021/06/30 10:58:13;;;;;;;10.98;9.05;;;22.40;70.30;;;;;;4980202;28;20034;-23
2021/06/30 11:00:45;;;;;;;9.32;8.43;;;22.40;70.10;;;;;;4978826;28;20088;-22
2021/06/30 11:03:29;;;;;;;10.55;8.32;;;22.40;70.20;;;;;;4985681;28;20031;-22
2021/06/30 11:06:24;;;;;;;9.75;7.50;;;22.40;69.60;;;;;;4979561;28;20053;-22
2021/06/30 11:09:09;;;;;;;9.77;8.18;;;22.40;69.20;;;;;;4961164;28;20430;-20
2021/06/30 11:11:35;;;;;;;8.38;7.32;;;22.60;69.10;;;;;;4979937;28;20038;-20
2021/06/30 11:14:11;;;;;;;10.98;7.88;;;22.50;69.10;;;;;;4968818;28;20536;-20
2021/06/30 11:16:36;;;;;;;10.05;7.45;;;22.70;68.60;;;;;;4968532;28;20122;-21
2021/06/30 11:19:06;;;;;;;8.60;7.80;;;22.60;68.40;;;;;;4969422;28;20038;-24
2021/06/30 11:21:56;;;;;;;7.47;6.60;;;22.60;68.50;;;;;;4969052;28;20041;-22
2021/06/30 11:24:41;;;;;;;10.02;7.50;;;22.60;68.40;;;;;;4968703;28;20041;-24
2021/06/30 11:27:11;;;;;;;9.18;7.75;;;22.60;68.10;;;;;;4968470;28;20038;-21
2021/06/30 11:29:46;;;;;;;8.27;7.25;;;22.60;67.80;;;;;;4968117;28;20051;-30
2021/06/30 11:35:01;;;;;;;8.50;7.60;;;22.50;67.60;;;;;;4969022;28;20176;-21
2021/06/30 11:37:27;;;;;;;7.28;6.63;;;22.60;67.60;;;;;;4977937;28;20033;-20
2021/06/30 11:39:57;;;;;;;7.53;6.88;;;22.50;67.80;;;;;;4980734;28;20463;-21
2021/06/30 11:42:53;;;;;;;8.43;7.45;;;22.60;67.80;;;;;;4984162;28;20030;-21
2021/06/30 11:45:23;;;;;;;7.90;7.10;;;22.60;67.80;;;;;;4965348;28;20039;-22
2021/06/30 11:47:53;;;;;;;7.95;6.57;;;22.50;67.70;;;;;;4986059;28;20065;-21
2021/06/30 11:50:20;;;;;;;7.30;6.70;;;22.60;67.50;;;;;;4979279;28;20034;-21
2021/06/30 11:52:46;;;;;;;6.72;6.15;;;22.50;67.70;;;;;;4967467;28;20703;-22
2021/06/30 11:55:12;;;;;;;7.75;6.97;;;22.60;67.70;;;;;;4980511;28;20031;-21
2021/06/30 11:58:00;;;;;;;7.15;6.45;;;22.50;68.10;;;;;;4978317;28;20109;-21
2021/06/30 12:00:27;;;;;;;5.93;5.32;;;22.70;67.50;;;;;;4985856;28;20042;-19
2021/06/30 12:02:54;;;;;;;7.00;6.20;;;22.70;67.60;;;;;;4983828;28;20049;-25
2021/06/30 12:05:21;;;;;;;6.20;5.55;;;22.60;68.50;;;;;;4982611;28;20059;-21
2021/06/30 12:07:47;;;;;;;7.18;6.38;;;22.60;67.90;;;;;;4977763;28;20054;-21
2021/06/30 12:10:13;;;;;;;6.63;6.00;;;22.50;68.20;;;;;;4981211;28;20128;-22
2021/06/30 12:12:39;;;;;;;7.20;6.30;;;22.50;68.30;;;;;;4984092;28;20061;-19
2021/06/30 12:15:06;;;;;;;7.40;6.70;;;22.50;68.30;;;;;;4980310;28;20027;-24
2021/06/30 12:17:31;;;;;;;6.85;6.25;;;22.60;68.20;;;;;;4986518;28;20050;-18
2021/06/30 12:20:00;;;;;;;7.82;6.38;;;22.50;68.50;;;;;;4981992;28;20557;-22
2021/06/30 12:22:45;;;;;;;6.68;5.90;;;22.60;68.20;;;;;;4968265;28;20045;-19
2021/06/30 12:25:18;;;;;;;6.70;6.10;;;22.60;68.00;;;;;;4982922;28;20038;-18
2021/06/30 12:27:44;;;;;;;6.20;5.63;;;22.60;68.00;;;;;;4981761;28;20062;-18
2021/06/30 12:30:11;;;;;;;5.85;5.35;;;22.70;67.90;;;;;;4983586;28;20041;-19
2021/06/30 12:32:37;;;;;;;6.63;6.00;;;22.70;67.80;;;;;;4978558;28;20022;-19
2021/06/30 12:35:05;;;;;;;5.97;5.50;;;22.70;67.80;;;;;;4969792;28;20042;-20
2021/06/30 12:37:30;;;;;;;7.30;6.70;;;22.70;67.60;;;;;;4975618;28;20114;-20
2021/06/30 12:40:00;;;;;;;8.15;5.75;;;22.70;67.50;;;;;;4978026;28;20117;-22
2021/06/30 12:42:41;;;;;;;7.60;6.90;;;22.70;67.60;;;;;;4981550;28;20026;-22
2021/06/30 12:45:07;;;;;;;6.95;6.43;;;22.70;67.80;;;;;;4974460;28;20037;-22
2021/06/30 12:47:33;;;;;;;7.25;6.55;;;22.60;67.80;;;;;;4980778;28;20065;-22
2021/06/30 12:50:05;;;;;;;8.85;8.02;;;22.70;67.90;;;;;;4983544;28;20137;-21